Terminal Aerodrome Forecast
Issued by NWS Twin Cities, MN

Home | Current Version | Previous Version | Text Only | Print | Product List | Glossary Off
Versions: 1 2 3 4 5 6 7 8 9 10 11 12 13 14 15 16 17 18 19 20

000
FTUS43 KMPX 201100
TAFSTC
TAF
KSTC 201135Z 2012/2112 15004KT 6SM HZ SCT040 BKN200
      TEMPO 2012/2014 4SM BR
     FM201500 19014G20KT P6SM FEW045 BKN200
     FM210100 18010KT P6SM BKN200=

USA.gov is the U.S. government's official web portal to all federal, state and local government web resources and services.